Terminal Aerodrome Forecast
Issued by NWS Houston/Galveston, TX

Home | Current Version | Previous Version | Text Only | Print | Product List | Glossary On
Versions: 1 2 3 4 5 6 7 8 9 10 11 12 13 14 15 16 17 18 19 20 21 22 23 24 25 26 27 28 29 30 31 32 33 34 35 36 37 38 39 40 41 42 43
000
FTUS44 KHGX 171837 AAB
TAFGLS
TAF AMD
KGLS 171837Z 1719/1818 17007KT P6SM VCSH SCT025 BKN035 BKN250
      TEMPO 1719/1721 VRB20KT 1SM +TSRA BKN025CB BKN035
     FM172100 18005KT P6SM SCT025 BKN250
     FM180600 20005KT P6SM VCSH SCT020 BKN250
      TEMPO 1808/1812 SHRA BKN015
     FM181500 VRB06KT P6SM VCSH SCT015 SCT060 BKN250=

USA.gov is the U.S. government's official web portal to all federal, state and local government web resources and services.